sensor_id;sensor_type;location;lat;lon;timestamp;temperature;humidity
38241;DHT22;24037;49.536;8.500;2023-02-28T00:00:17;-1.00;99.90
38241;DHT22;24037;49.536;8.500;2023-02-28T00:02:44;-0.90;99.90
38241;DHT22;24037;49.536;8.500;2023-02-28T00:05:11;-0.90;99.90
38241;DHT22;24037;49.536;8.500;2023-02-28T00:07:37;-0.90;99.90
38241;DHT22;24037;49.536;8.500;2023-02-28T00:10:04;-0.90;99.90
38241;DHT22;24037;49.536;8.500;2023-02-28T00:12:32;-0.90;99.90
38241;DHT22;24037;49.536;8.500;2023-02-28T00:14:58;-0.80;99.90
38241;DHT22;24037;49.536;8.500;2023-02-28T00:17:24;-0.90;99.90
38241;DHT22;24037;49.536;8.500;2023-02-28T00:19:50;-0.90;99.90
38241;DHT22;24037;49.536;8.500;2023-02-28T00:22:18;-0.90;99.90
38241;DHT22;24037;49.536;8.500;2023-02-28T00:24:44;-1.00;99.90
38241;DHT22;24037;49.536;8.500;2023-02-28T00:27:10;-0.90;99.90
38241;DHT22;24037;49.536;8.500;2023-02-28T00:29:37;-0.90;99.90
38241;DHT22;24037;49.536;8.500;2023-02-28T00:32:03;-0.90;99.90
38241;DHT22;24037;49.536;8.500;2023-02-28T00:34:30;-0.90;99.90
38241;DHT22;24037;49.536;8.500;2023-02-28T00:36:56;-0.90;99.90
38241;DHT22;24037;49.536;8.500;2023-02-28T00:39:22;-0.90;99.90
38241;DHT22;24037;49.536;8.500;2023-02-28T00:41:48;-0.90;99.90
38241;DHT22;24037;49.536;8.500;2023-02-28T00:44:14;-1.00;99.90
38241;DHT22;24037;49.536;8.500;2023-02-28T00:46:40;-1.10;99.90
38241;DHT22;24037;49.536;8.500;2023-02-28T00:49:06;-1.20;99.90
38241;DHT22;24037;49.536;8.500;2023-02-28T00:51:32;-1.10;99.90
38241;DHT22;24037;49.536;8.500;2023-02-28T00:53:58;-1.20;99.90
38241;DHT22;24037;49.536;8.500;2023-02-28T00:56:24;-1.20;99.90
38241;DHT22;24037;49.536;8.500;2023-02-28T00:58:50;-1.20;99.90
38241;DHT22;24037;49.536;8.500;2023-02-28T01:01:16;-1.30;99.90
38241;DHT22;24037;49.536;8.500;2023-02-28T01:03:42;-1.40;99.90
38241;DHT22;24037;49.536;8.500;2023-02-28T01:06:08;-1.50;99.90
38241;DHT22;24037;49.536;8.500;2023-02-28T01:08:34;-1.50;99.90
38241;DHT22;24037;49.536;8.500;2023-02-28T01:11:07;-1.60;99.90
38241;DHT22;24037;49.536;8.500;2023-02-28T01:13:33;-1.50;99.90
38241;DHT22;24037;49.536;8.500;2023-02-28T01:15:59;-1.40;99.90
38241;DHT22;24037;49.536;8.500;2023-02-28T01:18:25;-1.50;99.90
38241;DHT22;24037;49.536;8.500;2023-02-28T01:20:51;-1.40;99.90
38241;DHT22;24037;49.536;8.500;2023-02-28T01:23:19;-1.50;99.90
38241;DHT22;24037;49.536;8.500;2023-02-28T01:25:46;-1.50;99.90
38241;DHT22;24037;49.536;8.500;2023-02-28T01:28:12;-1.50;99.90
38241;DHT22;24037;49.536;8.500;2023-02-28T01:30:38;-1.50;99.90
38241;DHT22;24037;49.536;8.500;2023-02-28T01:33:05;-1.60;99.90
38241;DHT22;24037;49.536;8.500;2023-02-28T01:35:32;-1.60;99.90
38241;DHT22;24037;49.536;8.500;2023-02-28T01:37:59;-1.60;99.90
38241;DHT22;24037;49.536;8.500;2023-02-28T01:40:25;-1.60;99.90
38241;DHT22;24037;49.536;8.500;2023-02-28T01:42:51;-1.60;99.90
38241;DHT22;24037;49.536;8.500;2023-02-28T01:45:20;-1.70;99.90
38241;DHT22;24037;49.536;8.500;2023-02-28T01:47:48;-1.70;99.90
38241;DHT22;24037;49.536;8.500;2023-02-28T01:50:15;-1.80;99.90
38241;DHT22;24037;49.536;8.500;2023-02-28T01:52:42;-1.90;99.90
38241;DHT22;24037;49.536;8.500;2023-02-28T01:55:08;-1.90;99.90
38241;DHT22;24037;49.536;8.500;2023-02-28T01:57:37;-1.90;99.90
38241;DHT22;24037;49.536;8.500;2023-02-28T02:00:06;-1.90;99.90
38241;DHT22;24037;49.536;8.500;2023-02-28T02:02:38;-2.00;99.90
38241;DHT22;24037;49.536;8.500;2023-02-28T02:05:06;-2.00;99.90
38241;DHT22;24037;49.536;8.500;2023-02-28T02:07:34;-1.90;99.90
38241;DHT22;24037;49.536;8.500;2023-02-28T02:13:12;-2.00;99.90
38241;DHT22;24037;49.536;8.500;2023-02-28T02:15:41;-2.00;99.90
38241;DHT22;24037;49.536;8.500;2023-02-28T02:18:15;-2.10;99.90
38241;DHT22;24037;49.536;8.500;2023-02-28T02:20:46;-2.20;99.90
38241;DHT22;24037;49.536;8.500;2023-02-28T02:23:27;-2.20;99.90
38241;DHT22;24037;49.536;8.500;2023-02-28T02:25:58;-2.20;99.90
38241;DHT22;24037;49.536;8.500;2023-02-28T02:44:02;-2.30;99.90
38241;DHT22;24037;49.536;8.500;2023-02-28T02:46:33;-2.30;99.90
38241;DHT22;24037;49.536;8.500;2023-02-28T02:49:00;-2.20;99.90
38241;DHT22;24037;49.536;8.500;2023-02-28T02:51:29;-2.30;99.90
38241;DHT22;24037;49.536;8.500;2023-02-28T02:53:57;-2.30;99.90
38241;DHT22;24037;49.536;8.500;2023-02-28T02:56:27;-2.40;99.90
38241;DHT22;24037;49.536;8.500;2023-02-28T02:58:56;-2.30;99.90
38241;DHT22;24037;49.536;8.500;2023-02-28T03:01:24;-2.20;99.90
38241;DHT22;24037;49.536;8.500;2023-02-28T03:03:58;-2.30;99.90
38241;DHT22;24037;49.536;8.500;2023-02-28T03:06:25;-2.30;99.90
38241;DHT22;24037;49.536;8.500;2023-02-28T03:08:51;-2.40;99.90
38241;DHT22;24037;49.536;8.500;2023-02-28T03:11:17;-2.40;99.90
38241;DHT22;24037;49.536;8.500;2023-02-28T03:13:50;-2.40;99.90
38241;DHT22;24037;49.536;8.500;2023-02-28T03:16:36;-2.40;99.90
38241;DHT22;24037;49.536;8.500;2023-02-28T03:24:37;-2.40;99.90
38241;DHT22;24037;49.536;8.500;2023-02-28T03:27:08;-2.30;99.90
38241;DHT22;24037;49.536;8.500;2023-02-28T03:29:50;-2.40;99.90
38241;DHT22;24037;49.536;8.500;2023-02-28T03:32:21;-2.40;99.90
38241;DHT22;24037;49.536;8.500;2023-02-28T03:35:32;-2.40;99.90
38241;DHT22;24037;49.536;8.500;2023-02-28T03:37:38;-2.40;99.90
38241;DHT22;24037;49.536;8.500;2023-02-28T03:40:08;-2.50;99.90
38241;DHT22;24037;49.536;8.500;2023-02-28T03:42:36;-2.40;99.90
38241;DHT22;24037;49.536;8.500;2023-02-28T03:45:04;-2.40;99.90
38241;DHT22;24037;49.536;8.500;2023-02-28T03:47:40;-2.30;99.90
38241;DHT22;24037;49.536;8.500;2023-02-28T03:52:44;-2.30;99.90
38241;DHT22;24037;49.536;8.500;2023-02-28T03:55:11;-2.30;99.90
38241;DHT22;24037;49.536;8.500;2023-02-28T04:00:14;-2.20;99.90
38241;DHT22;24037;49.536;8.500;2023-02-28T04:02:43;-2.20;99.90
38241;DHT22;24037;49.536;8.500;2023-02-28T04:05:10;-2.20;99.90
38241;DHT22;24037;49.536;8.500;2023-02-28T04:07:36;-2.20;99.90
38241;DHT22;24037;49.536;8.500;2023-02-28T04:10:03;-2.30;99.90
38241;DHT22;24037;49.536;8.500;2023-02-28T04:12:29;-2.30;99.90
38241;DHT22;24037;49.536;8.500;2023-02-28T04:14:55;-2.30;99.90
38241;DHT22;24037;49.536;8.500;2023-02-28T04:17:21;-2.30;99.90
38241;DHT22;24037;49.536;8.500;2023-02-28T04:19:47;-2.20;99.90
38241;DHT22;24037;49.536;8.500;2023-02-28T04:22:13;-2.20;99.90
38241;DHT22;24037;49.536;8.500;2023-02-28T04:24:39;-2.20;99.90
38241;DHT22;24037;49.536;8.500;2023-02-28T04:27:09;-2.20;99.90
38241;DHT22;24037;49.536;8.500;2023-02-28T04:29:35;-2.10;99.90
38241;DHT22;24037;49.536;8.500;2023-02-28T04:32:02;-2.10;99.90
38241;DHT22;24037;49.536;8.500;2023-02-28T04:34:29;-2.20;99.90
38241;DHT22;24037;49.536;8.500;2023-02-28T04:36:55;-2.10;99.90
38241;DHT22;24037;49.536;8.500;2023-02-28T04:39:22;-2.00;99.90
38241;DHT22;24037;49.536;8.500;2023-02-28T04:41:48;-2.00;99.90
38241;DHT22;24037;49.536;8.500;2023-02-28T04:44:14;-2.00;99.90
38241;DHT22;24037;49.536;8.500;2023-02-28T04:46:41;-2.00;99.90
38241;DHT22;24037;49.536;8.500;2023-02-28T04:49:08;-2.00;99.90
38241;DHT22;24037;49.536;8.500;2023-02-28T04:51:34;-2.10;99.90
38241;DHT22;24037;49.536;8.500;2023-02-28T04:54:00;-2.20;99.90
38241;DHT22;24037;49.536;8.500;2023-02-28T04:56:26;-2.20;99.90
38241;DHT22;24037;49.536;8.500;2023-02-28T04:58:52;-2.10;99.90
38241;DHT22;24037;49.536;8.500;2023-02-28T05:01:23;-2.20;99.90
38241;DHT22;24037;49.536;8.500;2023-02-28T05:03:49;-2.10;99.90
38241;DHT22;24037;49.536;8.500;2023-02-28T05:06:16;-2.00;99.90
38241;DHT22;24037;49.536;8.500;2023-02-28T05:08:42;-2.10;99.90
38241;DHT22;24037;49.536;8.500;2023-02-28T05:11:21;-2.10;99.90
38241;DHT22;24037;49.536;8.500;2023-02-28T05:13:48;-2.10;99.90
38241;DHT22;24037;49.536;8.500;2023-02-28T05:16:14;-2.20;99.90
38241;DHT22;24037;49.536;8.500;2023-02-28T05:18:40;-2.20;99.90
38241;DHT22;24037;49.536;8.500;2023-02-28T05:21:12;-2.20;99.90
38241;DHT22;24037;49.536;8.500;2023-02-28T05:23:43;-2.20;99.90
38241;DHT22;24037;49.536;8.500;2023-02-28T05:26:09;-2.20;99.90
38241;DHT22;24037;49.536;8.500;2023-02-28T05:28:35;-2.20;99.90
38241;DHT22;24037;49.536;8.500;2023-02-28T05:31:01;-2.20;99.90
38241;DHT22;24037;49.536;8.500;2023-02-28T05:33:27;-2.10;99.90
38241;DHT22;24037;49.536;8.500;2023-02-28T05:35:53;-2.20;99.90
38241;DHT22;24037;49.536;8.500;2023-02-28T05:38:19;-2.10;99.90
38241;DHT22;24037;49.536;8.500;2023-02-28T05:40:45;-2.10;99.90
38241;DHT22;24037;49.536;8.500;2023-02-28T05:43:11;-2.20;99.90
38241;DHT22;24037;49.536;8.500;2023-02-28T05:45:37;-2.10;99.90
38241;DHT22;24037;49.536;8.500;2023-02-28T05:48:03;-2.10;99.90
38241;DHT22;24037;49.536;8.500;2023-02-28T05:50:29;-2.10;99.90
38241;DHT22;24037;49.536;8.500;2023-02-28T05:52:55;-2.10;99.90
38241;DHT22;24037;49.536;8.500;2023-02-28T05:55:21;-2.00;99.90
38241;DHT22;24037;49.536;8.500;2023-02-28T05:57:47;-1.90;99.90
38241;DHT22;24037;49.536;8.500;2023-02-28T06:00:13;-1.80;99.90
38241;DHT22;24037;49.536;8.500;2023-02-28T06:02:41;-1.60;99.90
38241;DHT22;24037;49.536;8.500;2023-02-28T06:05:09;-1.60;99.90
38241;DHT22;24037;49.536;8.500;2023-02-28T06:07:36;-1.60;99.90
38241;DHT22;24037;49.536;8.500;2023-02-28T06:10:03;-1.60;99.90
38241;DHT22;24037;49.536;8.500;2023-02-28T06:12:29;-1.60;99.90
38241;DHT22;24037;49.536;8.500;2023-02-28T06:14:55;-1.70;99.90
38241;DHT22;24037;49.536;8.500;2023-02-28T06:17:21;-1.60;99.90
38241;DHT22;24037;49.536;8.500;2023-02-28T06:19:47;-1.60;99.90
38241;DHT22;24037;49.536;8.500;2023-02-28T06:22:13;-1.60;99.90
38241;DHT22;24037;49.536;8.500;2023-02-28T06:24:39;-1.60;99.90
38241;DHT22;24037;49.536;8.500;2023-02-28T06:27:05;-1.60;99.90
38241;DHT22;24037;49.536;8.500;2023-02-28T06:29:32;-1.70;99.90
38241;DHT22;24037;49.536;8.500;2023-02-28T06:31:58;-1.80;99.90
38241;DHT22;24037;49.536;8.500;2023-02-28T06:34:24;-1.70;99.90
38241;DHT22;24037;49.536;8.500;2023-02-28T06:36:50;-1.70;99.90
38241;DHT22;24037;49.536;8.500;2023-02-28T06:39:16;-1.60;99.90
38241;DHT22;24037;49.536;8.500;2023-02-28T06:41:42;-1.50;99.90
38241;DHT22;24037;49.536;8.500;2023-02-28T06:44:11;-1.40;99.90
38241;DHT22;24037;49.536;8.500;2023-02-28T06:46:41;-1.40;99.90
38241;DHT22;24037;49.536;8.500;2023-02-28T06:49:07;-1.40;99.90
38241;DHT22;24037;49.536;8.500;2023-02-28T06:51:38;-1.20;99.90
38241;DHT22;24037;49.536;8.500;2023-02-28T06:54:04;-1.20;99.90
38241;DHT22;24037;49.536;8.500;2023-02-28T06:56:30;-1.10;99.90
38241;DHT22;24037;49.536;8.500;2023-02-28T06:58:56;-0.90;99.90
38241;DHT22;24037;49.536;8.500;2023-02-28T07:01:22;-0.80;99.90
38241;DHT22;24037;49.536;8.500;2023-02-28T07:03:50;-0.50;99.90
38241;DHT22;24037;49.536;8.500;2023-02-28T07:06:22;-0.10;99.90
38241;DHT22;24037;49.536;8.500;2023-02-28T07:08:51;0.10;99.90
38241;DHT22;24037;49.536;8.500;2023-02-28T07:11:21;0.30;99.90
38241;DHT22;24037;49.536;8.500;2023-02-28T07:13:48;0.60;99.90
38241;DHT22;24037;49.536;8.500;2023-02-28T07:16:14;0.90;99.90
38241;DHT22;24037;49.536;8.500;2023-02-28T07:18:40;1.00;99.90
38241;DHT22;24037;49.536;8.500;2023-02-28T07:21:07;1.00;99.90
38241;DHT22;24037;49.536;8.500;2023-02-28T07:23:34;1.00;99.90
38241;DHT22;24037;49.536;8.500;2023-02-28T07:26:00;1.50;99.90
38241;DHT22;24037;49.536;8.500;2023-02-28T07:28:26;1.10;99.90
38241;DHT22;24037;49.536;8.500;2023-02-28T07:30:52;0.60;99.90
38241;DHT22;24037;49.536;8.500;2023-02-28T07:33:19;0.40;99.90
38241;DHT22;24037;49.536;8.500;2023-02-28T07:35:44;0.30;99.90
38241;DHT22;24037;49.536;8.500;2023-02-28T07:38:10;0.30;99.90
38241;DHT22;24037;49.536;8.500;2023-02-28T07:40:38;0.30;99.90
38241;DHT22;24037;49.536;8.500;2023-02-28T07:43:04;0.40;99.90
38241;DHT22;24037;49.536;8.500;2023-02-28T07:45:32;0.40;99.90
38241;DHT22;24037;49.536;8.500;2023-02-28T07:48:00;0.60;99.90
38241;DHT22;24037;49.536;8.500;2023-02-28T07:50:26;0.60;99.90
38241;DHT22;24037;49.536;8.500;2023-02-28T07:52:54;1.00;99.90
38241;DHT22;24037;49.536;8.500;2023-02-28T07:55:20;1.20;99.90
38241;DHT22;24037;49.536;8.500;2023-02-28T07:57:47;1.20;99.90
38241;DHT22;24037;49.536;8.500;2023-02-28T08:00:13;1.20;99.90
38241;DHT22;24037;49.536;8.500;2023-02-28T08:02:40;1.30;99.90
38241;DHT22;24037;49.536;8.500;2023-02-28T08:05:06;1.70;99.90
38241;DHT22;24037;49.536;8.500;2023-02-28T08:07:32;1.80;99.90
38241;DHT22;24037;49.536;8.500;2023-02-28T08:09:59;1.60;99.90
38241;DHT22;24037;49.536;8.500;2023-02-28T08:12:25;1.60;99.90
38241;DHT22;24037;49.536;8.500;2023-02-28T08:14:51;1.80;99.90
38241;DHT22;24037;49.536;8.500;2023-02-28T08:17:17;2.30;99.90
38241;DHT22;24037;49.536;8.500;2023-02-28T08:19:46;2.30;99.90
38241;DHT22;24037;49.536;8.500;2023-02-28T08:22:12;2.30;99.90
38241;DHT22;24037;49.536;8.500;2023-02-28T08:24:40;3.10;99.90
38241;DHT22;24037;49.536;8.500;2023-02-28T08:27:06;3.70;99.90
38241;DHT22;24037;49.536;8.500;2023-02-28T08:29:32;3.20;99.90
38241;DHT22;24037;49.536;8.500;2023-02-28T08:31:58;3.20;99.90
38241;DHT22;24037;49.536;8.500;2023-02-28T08:34:24;3.40;99.90
38241;DHT22;24037;49.536;8.500;2023-02-28T08:36:50;3.80;99.90
38241;DHT22;24037;49.536;8.500;2023-02-28T08:39:16;4.10;99.90
38241;DHT22;24037;49.536;8.500;2023-02-28T08:41:43;3.90;99.90
38241;DHT22;24037;49.536;8.500;2023-02-28T08:44:09;4.10;99.90
38241;DHT22;24037;49.536;8.500;2023-02-28T08:46:35;4.10;99.90
38241;DHT22;24037;49.536;8.500;2023-02-28T08:49:01;4.10;99.90
38241;DHT22;24037;49.536;8.500;2023-02-28T08:51:28;4.20;99.90
38241;DHT22;24037;49.536;8.500;2023-02-28T08:53:54;4.50;99.90
38241;DHT22;24037;49.536;8.500;2023-02-28T08:56:21;4.60;99.90
38241;DHT22;24037;49.536;8.500;2023-02-28T08:58:50;5.60;99.90
38241;DHT22;24037;49.536;8.500;2023-02-28T09:01:18;4.60;99.90
38241;DHT22;24037;49.536;8.500;2023-02-28T09:03:44;5.10;99.90
38241;DHT22;24037;49.536;8.500;2023-02-28T09:06:13;5.30;99.90
38241;DHT22;24037;49.536;8.500;2023-02-28T09:08:45;4.60;99.90
38241;DHT22;24037;49.536;8.500;2023-02-28T09:11:14;5.10;99.90
38241;DHT22;24037;49.536;8.500;2023-02-28T09:13:40;5.30;99.90
38241;DHT22;24037;49.536;8.500;2023-02-28T09:16:07;5.50;99.90
38241;DHT22;24037;49.536;8.500;2023-02-28T09:18:34;5.50;99.90
38241;DHT22;24037;49.536;8.500;2023-02-28T09:21:03;5.70;99.90
38241;DHT22;24037;49.536;8.500;2023-02-28T09:23:30;5.80;99.90
38241;DHT22;24037;49.536;8.500;2023-02-28T09:25:58;5.30;99.90
38241;DHT22;24037;49.536;8.500;2023-02-28T09:28:24;5.00;99.90
38241;DHT22;24037;49.536;8.500;2023-02-28T09:30:52;5.30;99.90
38241;DHT22;24037;49.536;8.500;2023-02-28T09:33:18;5.70;99.90
38241;DHT22;24037;49.536;8.500;2023-02-28T09:35:47;5.10;99.90
38241;DHT22;24037;49.536;8.500;2023-02-28T09:38:13;5.80;99.90
38241;DHT22;24037;49.536;8.500;2023-02-28T09:40:45;5.80;99.90
38241;DHT22;24037;49.536;8.500;2023-02-28T09:43:13;5.90;99.90
38241;DHT22;24037;49.536;8.500;2023-02-28T09:45:40;6.30;99.90
38241;DHT22;24037;49.536;8.500;2023-02-28T09:48:10;5.60;99.90
38241;DHT22;24037;49.536;8.500;2023-02-28T09:50:38;4.70;99.90
38241;DHT22;24037;49.536;8.500;2023-02-28T09:53:16;4.40;99.90
38241;DHT22;24037;49.536;8.500;2023-02-28T09:55:46;4.40;99.90
38241;DHT22;24037;49.536;8.500;2023-02-28T09:58:16;4.30;99.90
38241;DHT22;24037;49.536;8.500;2023-02-28T10:00:45;4.00;99.90
38241;DHT22;24037;49.536;8.500;2023-02-28T10:05:58;3.80;99.90
38241;DHT22;24037;49.536;8.500;2023-02-28T10:10:58;3.60;99.90
38241;DHT22;24037;49.536;8.500;2023-02-28T10:16:11;3.90;99.90
38241;DHT22;24037;49.536;8.500;2023-02-28T10:18:49;3.70;99.90
38241;DHT22;24037;49.536;8.500;2023-02-28T10:21:19;4.00;99.90
38241;DHT22;24037;49.536;8.500;2023-02-28T10:23:46;4.00;99.90
38241;DHT22;24037;49.536;8.500;2023-02-28T10:26:14;3.90;99.90
38241;DHT22;24037;49.536;8.500;2023-02-28T10:28:44;4.00;99.90
38241;DHT22;24037;49.536;8.500;2023-02-28T10:31:14;4.20;99.90
38241;DHT22;24037;49.536;8.500;2023-02-28T10:33:42;4.50;99.90
38241;DHT22;24037;49.536;8.500;2023-02-28T10:36:09;4.30;99.90
38241;DHT22;24037;49.536;8.500;2023-02-28T10:38:38;4.00;99.90
38241;DHT22;24037;49.536;8.500;2023-02-28T10:41:09;4.00;99.90
38241;DHT22;24037;49.536;8.500;2023-02-28T10:43:36;4.10;99.90
38241;DHT22;24037;49.536;8.500;2023-02-28T10:48:41;3.80;99.90
38241;DHT22;24037;49.536;8.500;2023-02-28T10:51:10;3.70;99.90
38241;DHT22;24037;49.536;8.500;2023-02-28T11:01:34;3.90;99.90
38241;DHT22;24037;49.536;8.500;2023-02-28T11:04:01;3.90;99.90
38241;DHT22;24037;49.536;8.500;2023-02-28T11:06:31;4.00;99.90
38241;DHT22;24037;49.536;8.500;2023-02-28T11:09:02;4.20;99.90
38241;DHT22;24037;49.536;8.500;2023-02-28T11:11:29;4.30;99.90
38241;DHT22;24037;49.536;8.500;2023-02-28T11:14:02;4.00;99.90
38241;DHT22;24037;49.536;8.500;2023-02-28T11:16:35;4.20;99.90
38241;DHT22;24037;49.536;8.500;2023-02-28T11:19:03;4.00;99.90
38241;DHT22;24037;49.536;8.500;2023-02-28T11:21:31;4.10;99.90
38241;DHT22;24037;49.536;8.500;2023-02-28T11:24:04;4.20;99.90
38241;DHT22;24037;49.536;8.500;2023-02-28T11:26:39;4.20;99.90
38241;DHT22;24037;49.536;8.500;2023-02-28T11:29:10;4.60;99.90
38241;DHT22;24037;49.536;8.500;2023-02-28T11:31:36;4.70;99.90
38241;DHT22;24037;49.536;8.500;2023-02-28T11:34:07;4.40;99.90
38241;DHT22;24037;49.536;8.500;2023-02-28T11:36:46;4.40;99.90
38241;DHT22;24037;49.536;8.500;2023-02-28T11:39:13;4.70;99.90
38241;DHT22;24037;49.536;8.500;2023-02-28T11:41:55;5.10;99.90
38241;DHT22;24037;49.536;8.500;2023-02-28T11:46:54;4.80;99.90
38241;DHT22;24037;49.536;8.500;2023-02-28T11:51:51;4.60;99.90
38241;DHT22;24037;49.536;8.500;2023-02-28T11:56:55;5.10;99.90
38241;DHT22;24037;49.536;8.500;2023-02-28T11:59:35;5.20;99.90
38241;DHT22;24037;49.536;8.500;2023-02-28T12:07:31;5.10;99.90
38241;DHT22;24037;49.536;8.500;2023-02-28T12:10:03;5.40;99.90
38241;DHT22;24037;49.536;8.500;2023-02-28T12:15:04;5.40;99.90
38241;DHT22;24037;49.536;8.500;2023-02-28T12:20:24;5.40;99.90
38241;DHT22;24037;49.536;8.500;2023-02-28T12:25:43;5.40;99.90
38241;DHT22;24037;49.536;8.500;2023-02-28T12:28:14;5.50;99.90
38241;DHT22;24037;49.536;8.500;2023-02-28T12:30:46;5.20;99.90
38241;DHT22;24037;49.536;8.500;2023-02-28T12:33:13;5.40;99.90
38241;DHT22;24037;49.536;8.500;2023-02-28T12:35:50;5.30;99.90
38241;DHT22;24037;49.536;8.500;2023-02-28T12:41:19;5.60;99.90
38241;DHT22;24037;49.536;8.500;2023-02-28T12:43:52;5.80;99.90
38241;DHT22;24037;49.536;8.500;2023-02-28T12:46:23;5.50;99.90
38241;DHT22;24037;49.536;8.500;2023-02-28T12:48:52;5.50;99.90
38241;DHT22;24037;49.536;8.500;2023-02-28T12:51:19;5.50;99.90
38241;DHT22;24037;49.536;8.500;2023-02-28T12:56:19;5.50;99.90
38241;DHT22;24037;49.536;8.500;2023-02-28T12:58:56;5.10;99.90
38241;DHT22;24037;49.536;8.500;2023-02-28T13:09:34;5.40;99.90
38241;DHT22;24037;49.536;8.500;2023-02-28T13:12:00;5.30;99.90
38241;DHT22;24037;49.536;8.500;2023-02-28T13:17:00;5.60;99.90
38241;DHT22;24037;49.536;8.500;2023-02-28T13:19:28;5.70;99.90
38241;DHT22;24037;49.536;8.500;2023-02-28T13:21:54;5.70;99.90
38241;DHT22;24037;49.536;8.500;2023-02-28T13:29:29;5.00;99.90
38241;DHT22;24037;49.536;8.500;2023-02-28T13:34:35;5.20;99.90
38241;DHT22;24037;49.536;8.500;2023-02-28T13:39:46;5.40;99.90
38241;DHT22;24037;49.536;8.500;2023-02-28T13:42:35;5.60;99.90
38241;DHT22;24037;49.536;8.500;2023-02-28T13:49:55;5.70;99.90
38241;DHT22;24037;49.536;8.500;2023-02-28T13:52:43;5.60;99.90
38241;DHT22;24037;49.536;8.500;2023-02-28T13:57:49;5.40;99.90
38241;DHT22;24037;49.536;8.500;2023-02-28T14:03:17;5.70;99.90
38241;DHT22;24037;49.536;8.500;2023-02-28T14:05:44;5.80;99.90
38241;DHT22;24037;49.536;8.500;2023-02-28T14:08:18;6.00;99.90
38241;DHT22;24037;49.536;8.500;2023-02-28T14:10:47;5.80;99.90
38241;DHT22;24037;49.536;8.500;2023-02-28T14:18:22;5.80;99.90
38241;DHT22;24037;49.536;8.500;2023-02-28T14:20:49;5.90;99.90
38241;DHT22;24037;49.536;8.500;2023-02-28T14:26:14;5.60;99.90
38241;DHT22;24037;49.536;8.500;2023-02-28T14:28:56;5.50;99.90
38241;DHT22;24037;49.536;8.500;2023-02-28T14:31:35;5.50;99.90
38241;DHT22;24037;49.536;8.500;2023-02-28T14:36:47;5.30;99.90
38241;DHT22;24037;49.536;8.500;2023-02-28T14:39:14;5.40;99.90
38241;DHT22;24037;49.536;8.500;2023-02-28T14:41:42;5.50;99.90
38241;DHT22;24037;49.536;8.500;2023-02-28T14:44:25;5.50;99.90
38241;DHT22;24037;49.536;8.500;2023-02-28T14:46:59;5.50;99.90
38241;DHT22;24037;49.536;8.500;2023-02-28T14:49:31;5.30;99.90
38241;DHT22;24037;49.536;8.500;2023-02-28T14:52:10;5.30;99.90
38241;DHT22;24037;49.536;8.500;2023-02-28T14:54:40;5.10;99.90
38241;DHT22;24037;49.536;8.500;2023-02-28T14:57:19;5.00;99.90
38241;DHT22;24037;49.536;8.500;2023-02-28T14:59:46;5.20;99.90
38241;DHT22;24037;49.536;8.500;2023-02-28T15:02:19;5.40;99.90
38241;DHT22;24037;49.536;8.500;2023-02-28T15:04:55;5.30;99.90
38241;DHT22;24037;49.536;8.500;2023-02-28T15:07:22;5.10;99.90
38241;DHT22;24037;49.536;8.500;2023-02-28T15:10:10;5.20;99.90
38241;DHT22;24037;49.536;8.500;2023-02-28T15:12:36;5.30;99.90
38241;DHT22;24037;49.536;8.500;2023-02-28T15:15:02;5.10;99.90
38241;DHT22;24037;49.536;8.500;2023-02-28T15:17:28;5.10;99.90
38241;DHT22;24037;49.536;8.500;2023-02-28T15:19:55;5.20;99.90
38241;DHT22;24037;49.536;8.500;2023-02-28T15:22:25;5.30;99.90
38241;DHT22;24037;49.536;8.500;2023-02-28T15:24:54;5.30;99.90
38241;DHT22;24037;49.536;8.500;2023-02-28T15:27:25;5.20;99.90
38241;DHT22;24037;49.536;8.500;2023-02-28T15:29:57;5.00;99.90
38241;DHT22;24037;49.536;8.500;2023-02-28T15:32:31;5.10;99.90
38241;DHT22;24037;49.536;8.500;2023-02-28T15:34:57;4.90;99.90
38241;DHT22;24037;49.536;8.500;2023-02-28T15:39:50;5.00;99.90
38241;DHT22;24037;49.536;8.500;2023-02-28T15:42:19;5.10;99.90
38241;DHT22;24037;49.536;8.500;2023-02-28T15:44:46;5.10;99.90
38241;DHT22;24037;49.536;8.500;2023-02-28T15:47:14;5.00;99.90
38241;DHT22;24037;49.536;8.500;2023-02-28T15:52:15;5.00;99.90
38241;DHT22;24037;49.536;8.500;2023-02-28T15:54:42;5.00;99.90
38241;DHT22;24037;49.536;8.500;2023-02-28T15:57:18;4.90;99.90
38241;DHT22;24037;49.536;8.500;2023-02-28T15:59:55;5.00;99.90
38241;DHT22;24037;49.536;8.500;2023-02-28T16:02:25;5.00;99.90
38241;DHT22;24037;49.536;8.500;2023-02-28T16:04:56;5.00;99.90
38241;DHT22;24037;49.536;8.500;2023-02-28T16:07:22;5.00;99.90
38241;DHT22;24037;49.536;8.500;2023-02-28T16:09:48;5.00;99.90
38241;DHT22;24037;49.536;8.500;2023-02-28T16:12:14;5.00;99.90
38241;DHT22;24037;49.536;8.500;2023-02-28T16:14:43;4.90;99.90
38241;DHT22;24037;49.536;8.500;2023-02-28T16:17:16;4.90;99.90
38241;DHT22;24037;49.536;8.500;2023-02-28T16:19:44;4.80;99.90
38241;DHT22;24037;49.536;8.500;2023-02-28T16:22:10;4.80;99.90
38241;DHT22;24037;49.536;8.500;2023-02-28T16:24:36;4.80;99.90
38241;DHT22;24037;49.536;8.500;2023-02-28T16:27:02;4.80;99.90
38241;DHT22;24037;49.536;8.500;2023-02-28T16:29:29;4.80;99.90
38241;DHT22;24037;49.536;8.500;2023-02-28T16:31:56;4.80;99.90
38241;DHT22;24037;49.536;8.500;2023-02-28T16:34:23;4.70;99.90
38241;DHT22;24037;49.536;8.500;2023-02-28T16:36:49;4.70;99.90
38241;DHT22;24037;49.536;8.500;2023-02-28T16:39:15;4.60;99.90
38241;DHT22;24037;49.536;8.500;2023-02-28T16:41:42;4.60;99.90
38241;DHT22;24037;49.536;8.500;2023-02-28T16:44:10;4.60;99.90
38241;DHT22;24037;49.536;8.500;2023-02-28T16:46:37;4.50;99.90
38241;DHT22;24037;49.536;8.500;2023-02-28T16:49:03;4.50;99.90
38241;DHT22;24037;49.536;8.500;2023-02-28T16:51:29;4.50;99.90
38241;DHT22;24037;49.536;8.500;2023-02-28T16:53:55;4.40;99.90
38241;DHT22;24037;49.536;8.500;2023-02-28T16:56:22;4.30;99.90
38241;DHT22;24037;49.536;8.500;2023-02-28T16:58:49;4.30;99.90
38241;DHT22;24037;49.536;8.500;2023-02-28T17:01:15;4.20;99.90
38241;DHT22;24037;49.536;8.500;2023-02-28T17:03:41;4.10;99.90
38241;DHT22;24037;49.536;8.500;2023-02-28T17:06:16;4.10;99.90
38241;DHT22;24037;49.536;8.500;2023-02-28T17:08:42;4.10;99.90
38241;DHT22;24037;49.536;8.500;2023-02-28T17:11:08;4.00;99.90
38241;DHT22;24037;49.536;8.500;2023-02-28T17:13:34;4.00;99.90
38241;DHT22;24037;49.536;8.500;2023-02-28T17:16:00;3.90;99.90
38241;DHT22;24037;49.536;8.500;2023-02-28T17:18:26;3.80;99.90
38241;DHT22;24037;49.536;8.500;2023-02-28T17:20:54;3.70;99.90
38241;DHT22;24037;49.536;8.500;2023-02-28T17:23:20;3.70;99.90
38241;DHT22;24037;49.536;8.500;2023-02-28T17:25:46;3.60;99.90
38241;DHT22;24037;49.536;8.500;2023-02-28T17:28:19;3.40;99.90
38241;DHT22;24037;49.536;8.500;2023-02-28T17:30:46;3.40;99.90
38241;DHT22;24037;49.536;8.500;2023-02-28T17:33:13;3.30;99.90
38241;DHT22;24037;49.536;8.500;2023-02-28T17:35:39;3.30;99.90
38241;DHT22;24037;49.536;8.500;2023-02-28T17:38:07;3.30;99.90
38241;DHT22;24037;49.536;8.500;2023-02-28T17:40:33;3.20;99.90
38241;DHT22;24037;49.536;8.500;2023-02-28T17:42:59;3.10;99.90
38241;DHT22;24037;49.536;8.500;2023-02-28T17:45:25;2.90;99.90
38241;DHT22;24037;49.536;8.500;2023-02-28T17:47:51;2.80;99.90